Time;durP1;ratioP1;P1;durP2;ratioP2;P2;SDS_P1;SDS_P2;PMS_P1;PMS_P2;Temp;Humidity;BMP_temperature;BMP_pressure;BME280_temperature;BME280_humidity;BME280_pressure;Samples;Min_cycle;Max_cycle;Signal;HPM_P1;HPM_P2
2022/12/27 00:01:18;;;;;;;8.23;2.17;;;3.60;99.90;;;;;;5111438;27;20043;-81
2022/12/27 00:03:44;;;;;;;11.45;1.60;;;3.10;99.90;;;;;;5101374;28;20044;-82
2022/12/27 00:06:15;;;;;;;9.43;1.85;;;3.80;99.90;;;;;;5132536;27;20035;-81
2022/12/27 00:08:42;;;;;;;10.05;2.00;;;3.20;99.90;;;;;;5108348;28;20044;-82
2022/12/27 00:11:13;;;;;;;8.45;1.55;;;3.20;99.90;;;;;;5119858;27;20412;-82
2022/12/27 00:13:39;;;;;;;8.57;2.10;;;3.10;99.90;;;;;;5104026;28;20087;-82
2022/12/27 00:16:07;;;;;;;7.10;1.67;;;3.30;99.90;;;;;;5106708;27;20043;-80
2022/12/27 00:18:33;;;;;;;7.18;1.92;;;3.10;99.90;;;;;;5129670;27;20058;-81
2022/12/27 00:20:59;;;;;;;8.52;1.83;;;3.50;99.90;;;;;;5105850;28;20095;-81
2022/12/27 00:23:26;;;;;;;7.53;1.60;;;3.60;99.90;;;;;;5106630;27;20042;-81
2022/12/27 00:25:58;;;;;;;8.88;2.00;;;3.20;99.90;;;;;;5107262;28;20043;-82
2022/12/27 00:28:24;;;;;;;7.45;1.98;;;3.20;99.90;;;;;;5120196;27;20455;-82
2022/12/27 00:30:54;;;;;;;7.90;2.10;;;3.50;99.90;;;;;;5109857;28;20047;-82
2022/12/27 00:33:19;;;;;;;12.10;2.22;;;3.20;99.90;;;;;;5131361;27;20382;-81
2022/12/27 00:35:45;;;;;;;7.45;1.33;;;3.70;99.90;;;;;;5108539;28;20123;-82
2022/12/27 00:38:10;;;;;;;6.32;1.70;;;3.20;99.90;;;;;;5125199;27;20351;-81
2022/12/27 00:40:38;;;;;;;10.90;1.60;;;3.50;99.90;;;;;;5133872;27;20040;-82
2022/12/27 00:43:04;;;;;;;8.77;1.92;;;3.20;99.90;;;;;;5130623;27;20039;-82
2022/12/27 00:45:29;;;;;;;9.25;2.90;;;3.30;99.90;;;;;;5113982;28;20100;-82
2022/12/27 00:47:55;;;;;;;9.90;2.78;;;3.30;99.90;;;;;;5104731;28;20031;-81
2022/12/27 00:50:20;;;;;;;6.88;2.00;;;3.60;99.90;;;;;;5107310;28;20151;-82
2022/12/27 00:52:46;;;;;;;12.27;2.00;;;3.40;99.90;;;;;;5097577;28;20169;-81
2022/12/27 00:55:11;;;;;;;5.32;1.52;;;3.40;99.90;;;;;;5123527;28;20024;-82
2022/12/27 00:57:37;;;;;;;7.80;1.58;;;3.70;99.90;;;;;;5114372;28;20439;-82
2022/12/27 01:00:04;;;;;;;9.43;1.52;;;3.10;99.90;;;;;;5110283;28;20557;-82
2022/12/27 01:02:30;;;;;;;6.10;1.70;;;3.10;99.90;;;;;;5100272;28;20039;-81
2022/12/27 01:04:56;;;;;;;11.00;1.88;;;3.50;99.90;;;;;;5124655;28;20047;-82
2022/12/27 01:07:22;;;;;;;4.60;1.65;;;3.50;99.90;;;;;;5108244;28;20126;-82
2022/12/27 01:09:48;;;;;;;7.68;1.50;;;3.40;99.90;;;;;;5106263;28;20044;-81
2022/12/27 01:12:13;;;;;;;5.65;1.42;;;3.40;99.90;;;;;;5104172;28;20058;-81
2022/12/27 01:14:39;;;;;;;8.20;1.73;;;4.20;99.90;;;;;;5108680;28;20103;-81
2022/12/27 01:17:04;;;;;;;9.73;1.92;;;3.80;99.90;;;;;;5106976;28;20043;-82
2022/12/27 01:19:30;;;;;;;8.35;1.63;;;3.60;99.90;;;;;;5125659;28;20043;-81
2022/12/27 01:21:56;;;;;;;7.97;1.83;;;3.70;99.90;;;;;;5133929;28;20051;-81
2022/12/27 01:24:21;;;;;;;11.43;2.10;;;4.40;99.90;;;;;;5108899;28;20039;-82
2022/12/27 01:26:47;;;;;;;6.65;1.55;;;3.80;99.90;;;;;;5125654;28;20572;-82
2022/12/27 01:29:13;;;;;;;7.32;1.45;;;3.90;99.90;;;;;;5112581;28;20081;-82
2022/12/27 01:31:39;;;;;;;9.95;1.70;;;4.00;99.90;;;;;;5132743;28;20529;-82
2022/12/27 01:34:04;;;;;;;10.75;2.00;;;4.20;99.90;;;;;;5112941;28;20489;-81
2022/12/27 01:36:30;;;;;;;9.00;1.77;;;4.10;99.90;;;;;;5116623;28;20046;-81
2022/12/27 01:38:57;;;;;;;8.50;1.42;;;4.70;99.90;;;;;;5108778;28;20043;-80
2022/12/27 01:44:48;;;;;;;10.02;1.67;;;4.30;99.90;;;;;;5108171;28;20039;-81
2022/12/27 01:47:32;;;;;;;8.25;1.15;;;4.50;99.90;;;;;;5131887;28;20102;-80
2022/12/27 01:50:09;;;;;;;11.10;1.77;;;4.60;99.90;;;;;;5112673;28;20119;-80
2022/12/27 01:52:44;;;;;;;10.70;1.60;;;4.60;99.90;;;;;;5105020;28;20409;-81
2022/12/27 01:55:20;;;;;;;6.22;1.60;;;4.60;99.90;;;;;;5110306;28;20076;-81
2022/12/27 01:57:47;;;;;;;8.07;1.58;;;4.60;99.90;;;;;;5126398;27;20085;-81
2022/12/27 02:00:14;;;;;;;8.20;1.77;;;5.30;99.90;;;;;;5122153;27;20039;-80
2022/12/27 02:02:39;;;;;;;7.53;1.75;;;4.50;99.90;;;;;;5108226;27;20400;-82
2022/12/27 02:05:08;;;;;;;7.05;1.83;;;4.80;99.90;;;;;;5109057;27;20131;-81
2022/12/27 02:08:03;;;;;;;9.80;1.60;;;4.50;99.90;;;;;;5126309;27;20405;-80
2022/12/27 02:10:29;;;;;;;8.27;1.30;;;4.50;99.90;;;;;;5115040;27;20166;-82
2022/12/27 02:12:55;;;;;;;5.80;1.45;;;4.40;99.90;;;;;;5131038;27;20130;-84
2022/12/27 02:15:21;;;;;;;10.00;1.83;;;4.70;99.90;;;;;;5129309;27;20054;-82
2022/12/27 02:17:47;;;;;;;7.95;1.83;;;4.80;99.90;;;;;;5105607;28;20214;-81
2022/12/27 02:20:20;;;;;;;5.53;1.90;;;4.10;99.90;;;;;;5135374;27;20132;-82
2022/12/27 02:26:28;;;;;;;11.10;1.58;;;4.00;99.90;;;;;;5123547;27;20040;-82
2022/12/27 02:29:24;;;;;;;7.82;1.50;;;3.90;99.90;;;;;;5123114;27;20035;-83
2022/12/27 02:31:53;;;;;;;7.18;1.45;;;3.80;99.90;;;;;;5078627;27;20047;-82
2022/12/27 02:34:47;;;;;;;10.85;1.67;;;3.70;99.90;;;;;;5133462;27;20122;-82
2022/12/27 02:37:13;;;;;;;;;;;3.80;99.90;;;;;;5113292;27;20061;-82
2022/12/27 02:39:44;;;;;;;8.15;1.63;;;3.80;99.90;;;;;;5113178;27;19922;-82
2022/12/27 02:53:38;;;;;;;7.30;1.40;;;4.40;99.90;;;;;;5109505;27;20043;-82
2022/12/27 02:59:24;;;;;;;8.32;1.40;;;3.70;99.90;;;;;;5126738;27;20118;-81
2022/12/27 03:05:17;;;;;;;8.98;2.03;;;3.80;99.90;;;;;;5124823;27;19915;-82
2022/12/27 03:08:00;;;;;;;10.57;1.50;;;3.90;99.90;;;;;;5100676;28;20078;-82
2022/12/27 03:16:54;;;;;;;10.93;2.08;;;3.90;99.90;;;;;;5121379;27;20039;-82
2022/12/27 03:25:28;;;;;;;12.68;2.05;;;3.80;99.90;;;;;;5127478;27;20048;-83
2022/12/27 03:33:41;;;;;;;13.40;2.00;;;4.00;99.90;;;;;;5112055;27;20047;-80
2022/12/27 03:39:29;;;;;;;10.73;1.60;;;4.50;99.90;;;;;;5126180;27;20361;-82
2022/12/27 03:44:46;;;;;;;11.13;1.98;;;4.60;99.90;;;;;;5134651;27;20438;-82
2022/12/27 03:47:41;;;;;;;10.98;2.10;;;4.40;99.90;;;;;;5111787;27;20043;-82
2022/12/27 03:50:24;;;;;;;7.28;2.15;;;4.40;99.90;;;;;;5126217;27;20122;-81
2022/12/27 03:52:58;;;;;;;12.03;2.10;;;4.40;99.90;;;;;;5136540;27;20395;-82
2022/12/27 03:55:24;;;;;;;14.90;2.70;;;4.30;99.90;;;;;;5114308;27;20296;-82
2022/12/27 03:57:50;;;;;;;9.55;1.67;;;4.40;99.90;;;;;;5106330;27;20035;-83
2022/12/27 04:00:16;;;;;;;8.32;1.70;;;4.30;99.90;;;;;;5110507;27;20096;-82
2022/12/27 04:02:42;;;;;;;8.18;1.73;;;4.30;99.90;;;;;;5120112;27;20047;-83
2022/12/27 04:05:08;;;;;;;7.47;2.05;;;5.00;99.90;;;;;;5117069;27;20070;-83
2022/12/27 04:07:33;;;;;;;9.75;1.55;;;4.40;99.90;;;;;;5113530;27;20031;-83
2022/12/27 04:34:42;;;;;;;7.07;1.70;;;4.50;99.90;;;;;;5125989;27;20039;-82
2022/12/27 04:37:14;;;;;;;6.43;1.50;;;3.80;99.90;;;;;;5123074;27;20389;-82
2022/12/27 04:39:40;;;;;;;6.95;1.42;;;3.90;99.90;;;;;;5108423;28;20036;-83
2022/12/27 04:56:04;;;;;;;11.02;1.80;;;3.80;99.90;;;;;;5133117;27;20047;-83
2022/12/27 04:58:31;;;;;;;8.18;1.77;;;3.90;99.90;;;;;;5104689;28;20042;-83
2022/12/27 05:03:47;;;;;;;10.63;2.25;;;3.80;99.90;;;;;;5126118;28;20047;-83
2022/12/27 05:06:13;;;;;;;8.25;1.80;;;3.90;99.90;;;;;;5129769;28;20102;-82
2022/12/27 05:14:11;;;;;;;7.60;2.00;;;3.90;99.90;;;;;;5134598;28;20043;-83
2022/12/27 05:16:39;;;;;;;11.10;2.20;;;4.00;99.90;;;;;;5132220;28;20493;-82
2022/12/27 05:19:07;;;;;;;13.20;2.33;;;3.90;99.90;;;;;;5131216;28;20381;-83
2022/12/27 05:21:36;;;;;;;6.25;1.70;;;3.90;99.90;;;;;;5125777;28;20420;-82
2022/12/27 05:26:47;;;;;;;7.05;1.40;;;3.90;99.90;;;;;;5127376;28;20043;-83
2022/12/27 05:29:13;;;;;;;7.82;1.52;;;3.90;99.90;;;;;;5109948;28;20032;-82
2022/12/27 05:31:38;;;;;;;8.45;1.40;;;3.80;99.90;;;;;;5096916;28;20382;-83
2022/12/27 05:34:05;;;;;;;7.85;1.63;;;4.10;99.90;;;;;;5110581;28;20094;-82
2022/12/27 05:36:31;;;;;;;8.20;1.88;;;3.70;99.90;;;;;;5098238;28;20070;-82
2022/12/27 05:38:57;;;;;;;9.80;1.80;;;3.70;99.90;;;;;;5112881;27;20039;-82
2022/12/27 05:41:23;;;;;;;9.13;1.75;;;3.60;99.90;;;;;;5134875;27;20050;-82
2022/12/27 05:43:49;;;;;;;6.50;1.95;;;3.60;99.90;;;;;;5112128;28;20421;-82
2022/12/27 05:46:17;;;;;;;8.13;1.92;;;3.50;99.90;;;;;;5115078;27;20039;-82
2022/12/27 05:48:42;;;;;;;7.18;1.60;;;4.00;99.90;;;;;;5137374;27;20073;-82
2022/12/27 05:51:15;;;;;;;10.05;1.77;;;3.60;99.90;;;;;;5116182;27;20047;-82
2022/12/27 05:53:40;;;;;;;4.30;2.00;;;3.50;99.90;;;;;;5113850;27;20050;-82
2022/12/27 05:56:08;;;;;;;7.03;1.65;;;3.90;99.90;;;;;;5136928;27;20058;-82
2022/12/27 05:58:34;;;;;;;7.18;1.58;;;3.40;99.90;;;;;;5112651;27;20045;-82
2022/12/27 06:01:00;;;;;;;8.75;2.20;;;3.90;99.90;;;;;;5121117;27;20110;-82
2022/12/27 06:03:26;;;;;;;9.20;1.30;;;3.80;99.90;;;;;;5110246;27;20078;-82
2022/12/27 06:05:57;;;;;;;8.23;1.75;;;3.70;99.90;;;;;;5128539;27;20036;-82
2022/12/27 06:08:23;;;;;;;8.38;1.80;;;3.70;99.90;;;;;;5109953;27;20086;-82
2022/12/27 06:10:48;;;;;;;10.25;2.10;;;3.50;99.90;;;;;;5112329;27;20047;-83
2022/12/27 06:13:14;;;;;;;10.00;1.90;;;3.50;99.90;;;;;;5118656;27;20047;-82
2022/12/27 06:15:39;;;;;;;6.50;1.90;;;3.40;99.90;;;;;;5107931;27;20058;-82
2022/12/27 06:18:05;;;;;;;9.45;1.88;;;3.30;99.90;;;;;;5112191;27;20042;-82
2022/12/27 06:20:31;;;;;;;12.25;3.08;;;3.30;99.90;;;;;;5111597;27;20043;-82
2022/12/27 06:22:58;;;;;;;11.65;2.63;;;3.60;99.90;;;;;;5101171;27;20031;-82
2022/12/27 06:25:24;;;;;;;9.57;1.95;;;3.30;99.90;;;;;;5111365;27;20062;-82
2022/12/27 06:27:49;;;;;;;10.20;1.88;;;3.40;99.90;;;;;;5114488;27;20027;-82
2022/12/27 06:30:15;;;;;;;8.57;2.03;;;3.70;99.90;;;;;;5118730;27;20069;-82
2022/12/27 06:32:40;;;;;;;6.97;2.80;;;3.30;99.90;;;;;;5117620;27;20039;-82
2022/12/27 06:35:06;;;;;;;11.27;2.20;;;3.30;99.90;;;;;;5114812;27;20118;-82
2022/12/27 06:37:32;;;;;;;6.50;1.95;;;3.20;99.90;;;;;;5128329;27;20035;-82
2022/12/27 06:39:57;;;;;;;9.25;1.90;;;3.20;99.90;;;;;;5125989;27;20077;-82
2022/12/27 06:42:23;;;;;;;8.73;1.63;;;3.30;99.90;;;;;;5107778;27;20035;-82
2022/12/27 06:44:48;;;;;;;9.80;2.03;;;3.10;99.90;;;;;;5110003;27;20050;-82
2022/12/27 06:47:14;;;;;;;9.35;1.88;;;3.30;99.90;;;;;;5106555;27;20040;-82
2022/12/27 06:49:40;;;;;;;7.22;2.25;;;3.40;99.90;;;;;;5116777;27;20392;-82
2022/12/27 06:52:05;;;;;;;8.38;2.17;;;3.50;99.90;;;;;;5105714;27;20039;-82
2022/12/27 06:54:31;;;;;;;7.55;2.05;;;3.40;99.90;;;;;;5131422;27;20043;-82
2022/12/27 06:56:56;;;;;;;13.82;2.42;;;3.50;99.90;;;;;;5114032;27;20038;-83
2022/12/27 06:59:23;;;;;;;8.07;1.77;;;3.80;99.90;;;;;;5113758;27;20458;-79
2022/12/27 07:01:48;;;;;;;11.07;2.13;;;3.30;99.90;;;;;;5114238;27;20322;-82
2022/12/27 07:04:14;;;;;;;10.15;2.10;;;3.80;99.90;;;;;;5110906;27;20035;-82
2022/12/27 07:06:39;;;;;;;8.57;1.60;;;3.30;99.90;;;;;;5113341;28;20356;-82
2022/12/27 07:09:05;;;;;;;10.00;1.80;;;3.30;99.90;;;;;;5103859;27;20119;-82
2022/12/27 07:11:32;;;;;;;11.05;2.80;;;3.50;99.90;;;;;;5133517;27;20051;-82
2022/12/27 07:13:58;;;;;;;13.57;2.10;;;3.70;99.90;;;;;;5111971;27;20496;-82
2022/12/27 07:16:26;;;;;;;7.38;2.38;;;3.10;99.90;;;;;;5129987;27;20042;-82
2022/12/27 07:18:53;;;;;;;6.57;2.30;;;3.70;99.90;;;;;;5126978;27;20031;-83
2022/12/27 07:21:20;;;;;;;7.38;1.50;;;3.30;99.90;;;;;;5107651;27;20120;-82
2022/12/27 07:23:46;;;;;;;7.22;1.52;;;3.10;99.90;;;;;;5108038;27;20053;-82
2022/12/27 07:26:14;;;;;;;5.63;1.48;;;3.10;99.90;;;;;;5109278;27;20036;-83
2022/12/27 07:28:40;;;;;;;7.25;1.73;;;3.70;99.90;;;;;;5138186;27;20532;-82
2022/12/27 07:31:12;;;;;;;8.02;2.00;;;3.60;99.90;;;;;;5116401;27;20058;-82
2022/12/27 07:33:38;;;;;;;6.68;2.03;;;3.20;99.90;;;;;;5118220;27;20043;-82
2022/12/27 07:36:06;;;;;;;5.93;1.67;;;3.50;99.90;;;;;;5117448;27;20489;-83
2022/12/27 07:38:32;;;;;;;7.82;1.90;;;3.30;99.90;;;;;;5115931;27;20046;-82
2022/12/27 07:40:59;;;;;;;10.95;1.95;;;3.30;99.90;;;;;;5107487;27;20054;-83
2022/12/27 07:43:25;;;;;;;8.85;2.05;;;3.70;99.90;;;;;;5115272;27;20039;-82
2022/12/27 07:45:50;;;;;;;5.80;1.75;;;3.30;99.90;;;;;;5137172;27;20043;-82
2022/12/27 07:48:16;;;;;;;13.93;2.38;;;3.40;99.90;;;;;;5102515;28;20039;-82
2022/12/27 07:50:41;;;;;;;9.07;1.90;;;3.30;99.90;;;;;;5108111;27;20047;-83
2022/12/27 07:53:07;;;;;;;9.23;2.15;;;3.90;99.90;;;;;;5122616;27;20047;-82
2022/12/27 07:55:32;;;;;;;8.27;1.92;;;3.40;99.90;;;;;;5115862;27;20475;-83
2022/12/27 07:57:58;;;;;;;9.50;2.50;;;3.40;99.90;;;;;;5131536;27;20042;-82
2022/12/27 08:00:24;;;;;;;12.18;2.40;;;3.50;99.90;;;;;;5114593;27;20071;-84
2022/12/27 08:02:49;;;;;;;10.07;3.05;;;3.40;99.90;;;;;;5112245;27;20099;-82
2022/12/27 08:05:15;;;;;;;13.10;3.85;;;3.40;99.90;;;;;;5114720;27;20042;-82
2022/12/27 08:07:40;;;;;;;13.85;4.85;;;3.20;99.90;;;;;;5106195;27;20096;-82
2022/12/27 08:10:07;;;;;;;19.40;6.30;;;3.10;99.90;;;;;;5103964;27;20048;-82
2022/12/27 08:12:32;;;;;;;12.32;3.42;;;3.10;99.90;;;;;;5124042;27;20046;-81
2022/12/27 08:14:58;;;;;;;11.88;2.97;;;3.20;99.90;;;;;;5113419;27;20051;-82
2022/12/27 08:17:26;;;;;;;13.80;3.00;;;3.20;99.90;;;;;;5109855;27;20172;-82
2022/12/27 08:19:53;;;;;;;12.85;2.45;;;3.30;99.90;;;;;;5125559;27;20039;-82
2022/12/27 08:22:19;;;;;;;15.65;2.60;;;3.60;99.90;;;;;;5134150;27;20044;-82
2022/12/27 08:24:44;;;;;;;11.02;3.22;;;3.20;99.90;;;;;;5127965;27;20039;-82
2022/12/27 08:27:10;;;;;;;7.85;2.22;;;3.20;99.90;;;;;;5129904;27;20034;-82
2022/12/27 08:29:36;;;;;;;14.90;2.88;;;3.30;99.90;;;;;;5121792;27;20059;-82
2022/12/27 08:32:03;;;;;;;10.50;2.45;;;3.10;99.90;;;;;;5112574;27;20074;-82
2022/12/27 08:34:28;;;;;;;11.23;2.70;;;3.10;99.90;;;;;;5110289;27;20050;-80
2022/12/27 08:36:54;;;;;;;7.40;2.40;;;3.50;99.90;;;;;;5101971;28;20412;-82
2022/12/27 08:39:19;;;;;;;12.18;2.97;;;3.20;99.90;;;;;;5097530;28;20153;-81
2022/12/27 08:41:45;;;;;;;13.35;2.40;;;3.50;99.90;;;;;;5105540;27;20103;-82
2022/12/27 08:44:11;;;;;;;10.43;2.33;;;3.10;99.90;;;;;;5135417;27;20042;-82
2022/12/27 08:46:37;;;;;;;8.63;2.33;;;3.10;99.90;;;;;;5106354;28;20036;-83
2022/12/27 08:49:03;;;;;;;9.25;2.30;;;3.20;99.90;;;;;;5114928;28;20484;-82
2022/12/27 08:51:29;;;;;;;9.70;2.50;;;3.10;99.90;;;;;;5100773;28;20086;-82
2022/12/27 08:53:55;;;;;;;11.93;2.75;;;3.50;99.90;;;;;;5097207;28;20048;-82
2022/12/27 08:56:21;;;;;;;12.70;2.10;;;3.60;99.90;;;;;;5097444;28;20043;-82
2022/12/27 08:58:49;;;;;;;12.52;2.22;;;3.20;99.90;;;;;;5096324;28;20101;-82
2022/12/27 09:01:15;;;;;;;10.98;2.42;;;3.60;99.90;;;;;;5119640;28;20043;-82
2022/12/27 09:03:41;;;;;;;9.20;2.13;;;3.60;99.90;;;;;;5115727;28;20036;-82
2022/12/27 09:06:15;;;;;;;9.13;2.22;;;3.40;99.90;;;;;;5096369;28;20042;-83
2022/12/27 09:08:42;;;;;;;10.07;2.65;;;3.30;99.90;;;;;;5094909;28;20078;-82
2022/12/27 09:11:12;;;;;;;15.15;3.63;;;3.20;99.90;;;;;;5098519;28;20432;-82
2022/12/27 09:13:39;;;;;;;13.82;2.85;;;3.30;99.90;;;;;;5119658;27;20071;-81
2022/12/27 09:16:10;;;;;;;9.68;3.22;;;3.50;99.90;;;;;;5118745;28;20047;-82
2022/12/27 09:18:40;;;;;;;14.27;3.67;;;4.00;99.90;;;;;;5100809;28;20044;-82
2022/12/27 09:21:09;;;;;;;12.93;2.50;;;3.50;99.90;;;;;;5119074;27;20517;-83
2022/12/27 09:23:35;;;;;;;10.25;2.30;;;3.40;99.90;;;;;;5099724;28;20532;-82
2022/12/27 09:26:09;;;;;;;8.52;2.67;;;3.40;99.90;;;;;;5099393;28;20059;-83
2022/12/27 09:28:35;;;;;;;10.18;2.80;;;3.40;99.90;;;;;;5099521;28;20040;-82
2022/12/27 09:31:02;;;;;;;13.35;2.35;;;3.40;99.90;;;;;;5101377;28;20067;-82
2022/12/27 09:33:27;;;;;;;11.98;2.45;;;3.60;99.90;;;;;;5112322;27;20117;-82
2022/12/27 09:35:59;;;;;;;10.00;2.42;;;3.40;99.90;;;;;;5118996;27;20071;-82
2022/12/27 09:38:24;;;;;;;8.50;2.28;;;3.50;99.90;;;;;;5128707;27;20621;-82
2022/12/27 09:40:55;;;;;;;9.50;2.50;;;3.50;99.90;;;;;;5118224;28;20035;-83
2022/12/27 09:43:28;;;;;;;8.82;2.63;;;3.70;99.90;;;;;;5119178;27;20035;-83
2022/12/27 09:45:56;;;;;;;11.05;2.42;;;3.70;99.90;;;;;;5138900;27;20081;-83
2022/12/27 09:48:32;;;;;;;10.00;3.33;;;3.70;99.90;;;;;;5120268;27;20084;-82
2022/12/27 09:51:05;;;;;;;10.88;2.90;;;3.80;99.90;;;;;;5139094;27;20087;-80
2022/12/27 09:53:38;;;;;;;9.13;2.90;;;3.80;99.90;;;;;;5119292;27;20046;-81
2022/12/27 09:56:04;;;;;;;12.23;2.58;;;4.30;99.90;;;;;;5139425;27;20031;-82
2022/12/27 09:58:49;;;;;;;9.27;2.95;;;3.90;99.90;;;;;;5120251;27;20043;-81
2022/12/27 10:01:22;;;;;;;11.60;3.53;;;3.90;99.90;;;;;;5119923;27;20039;-82
2022/12/27 10:03:48;;;;;;;14.17;4.60;;;4.20;99.90;;;;;;5136799;27;20031;-82
2022/12/27 10:06:23;;;;;;;14.75;4.65;;;4.10;99.90;;;;;;5138225;27;20104;-82
2022/12/27 10:08:58;;;;;;;13.43;3.50;;;4.20;99.90;;;;;;5117740;27;20035;-82
2022/12/27 10:11:41;;;;;;;11.95;3.00;;;4.30;99.90;;;;;;5121201;27;20053;-82
2022/12/27 10:14:46;;;;;;;8.07;2.80;;;4.30;99.90;;;;;;5118746;27;20046;-82
2022/12/27 10:17:33;;;;;;;9.30;2.60;;;4.40;99.90;;;;;;5134977;27;20070;-82
2022/12/27 10:20:29;;;;;;;9.02;2.85;;;4.40;99.90;;;;;;5137552;27;20055;-82
2022/12/27 10:23:05;;;;;;;11.55;2.70;;;4.50;99.90;;;;;;5118054;27;20078;-81
2022/12/27 10:25:33;;;;;;;12.90;2.60;;;4.60;99.90;;;;;;5112432;27;20051;-81
2022/12/27 10:28:11;;;;;;;13.30;2.70;;;4.70;99.90;;;;;;5117848;27;20039;-82
2022/12/27 10:30:39;;;;;;;8.57;2.20;;;4.80;99.90;;;;;;5120106;27;20216;-81
2022/12/27 10:33:05;;;;;;;9.38;1.98;;;4.90;99.90;;;;;;5138386;27;20042;-82
2022/12/27 10:35:31;;;;;;;12.02;2.78;;;5.00;99.90;;;;;;5107812;28;20043;-82
2022/12/27 10:37:58;;;;;;;9.45;2.42;;;5.00;99.90;;;;;;5100048;28;20076;-82
2022/12/27 10:40:47;;;;;;;11.95;2.33;;;5.10;99.90;;;;;;5116904;27;20038;-82
2022/12/27 10:43:20;;;;;;;8.43;2.58;;;5.10;99.90;;;;;;5102838;27;20039;-82
2022/12/27 10:45:45;;;;;;;11.27;2.60;;;5.20;99.90;;;;;;5119684;27;20038;-82
2022/12/27 10:48:16;;;;;;;10.55;3.20;;;5.20;99.90;;;;;;5118968;27;20121;-81
2022/12/27 10:50:46;;;;;;;8.98;2.28;;;5.20;99.90;;;;;;5137750;27;20160;-82
2022/12/27 10:53:29;;;;;;;9.63;1.98;;;5.30;99.90;;;;;;5125535;27;20046;-81
2022/12/27 10:56:25;;;;;;;11.15;2.72;;;5.50;99.90;;;;;;5099822;28;20054;-81
2022/12/27 10:58:53;;;;;;;13.88;2.88;;;5.60;99.90;;;;;;5112413;28;20105;-82
2022/12/27 11:01:31;;;;;;;9.63;2.47;;;5.70;99.90;;;;;;5111218;27;20039;-82
2022/12/27 11:04:15;;;;;;;8.77;2.10;;;5.80;99.90;;;;;;5098262;28;20035;-82
2022/12/27 11:06:41;;;;;;;8.82;2.00;;;5.80;99.90;;;;;;5117109;28;20382;-81
2022/12/27 11:09:27;;;;;;;9.02;2.05;;;5.90;99.90;;;;;;5098478;28;20492;-82
2022/12/27 11:12:13;;;;;;;7.32;2.10;;;5.90;99.90;;;;;;5101271;27;20046;-82
2022/12/27 11:14:42;;;;;;;11.73;2.40;;;5.90;99.90;;;;;;5127978;27;20089;-82
2022/12/27 11:17:13;;;;;;;8.70;1.98;;;5.80;99.90;;;;;;5102008;27;20043;-82
2022/12/27 11:19:45;;;;;;;8.40;2.08;;;5.70;99.90;;;;;;5106489;28;20102;-81
2022/12/27 11:22:11;;;;;;;7.05;2.10;;;5.70;99.90;;;;;;5122112;27;20126;-81
2022/12/27 11:24:43;;;;;;;10.65;2.30;;;5.60;99.90;;;;;;5133707;27;20074;-81
2022/12/27 11:27:21;;;;;;;5.00;1.90;;;5.50;99.90;;;;;;5128740;27;20035;-81
2022/12/27 11:29:46;;;;;;;6.72;2.17;;;5.40;99.90;;;;;;5098415;28;20039;-81
2022/12/27 11:32:13;;;;;;;10.13;2.38;;;5.50;99.90;;;;;;5099182;27;21851;-81
2022/12/27 11:34:45;;;;;;;10.00;2.08;;;5.70;99.90;;;;;;5100766;28;20050;-80
2022/12/27 11:37:14;;;;;;;14.48;2.58;;;5.90;99.90;;;;;;5133014;27;20501;-81
2022/12/27 11:39:52;;;;;;;10.85;2.28;;;6.10;99.90;;;;;;5098440;28;20070;-80
2022/12/27 11:42:37;;;;;;;11.05;2.30;;;6.10;99.90;;;;;;5116016;28;20092;-82
2022/12/27 11:45:09;;;;;;;10.00;2.15;;;6.20;99.90;;;;;;5118201;27;20082;-82
2022/12/27 11:47:43;;;;;;;6.55;2.00;;;6.20;99.90;;;;;;5099325;28;20048;-81
2022/12/27 11:50:26;;;;;;;9.25;2.00;;;6.30;99.90;;;;;;5123646;27;20031;-81
2022/12/27 11:53:01;;;;;;;7.63;2.20;;;6.30;99.90;;;;;;5118972;27;20101;-81
2022/12/27 11:56:00;;;;;;;10.98;3.03;;;6.30;99.90;;;;;;5099850;27;20082;-81
2022/12/27 11:59:17;;;;;;;7.18;1.80;;;6.30;99.90;;;;;;5090962;28;20402;-81
2022/12/27 12:01:56;;;;;;;7.18;1.92;;;6.20;99.90;;;;;;5047996;28;20080;-79
2022/12/27 12:04:47;;;;;;;11.52;2.95;;;6.10;99.90;;;;;;5066515;28;20049;-81
2022/12/27 12:07:42;;;;;;;8.13;2.15;;;6.10;99.90;;;;;;5051333;28;20041;-80
2022/12/27 12:10:27;;;;;;;9.02;2.20;;;6.00;99.90;;;;;;5065074;28;20100;-81
2022/12/27 12:13:15;;;;;;;9.35;2.17;;;6.10;99.90;;;;;;5061035;28;20048;-81
2022/12/27 12:16:00;;;;;;;6.22;1.73;;;6.20;99.90;;;;;;5065786;28;20051;-80
2022/12/27 12:18:44;;;;;;;13.15;2.33;;;6.30;99.90;;;;;;5057085;28;20082;-80
2022/12/27 12:21:24;;;;;;;;;;;6.40;99.90;;;;;;5052356;28;20037;-81
2022/12/27 12:24:15;;;;;;;8.98;2.00;;;6.60;99.90;;;;;;5071875;28;19920;-79
2022/12/27 12:27:25;;;;;;;12.18;2.10;;;6.70;99.90;;;;;;5052266;28;20230;-81
2022/12/27 12:30:11;;;;;;;9.70;2.03;;;6.80;99.90;;;;;;5051896;28;20043;-81
2022/12/27 12:32:42;;;;;;;6.85;2.15;;;6.70;99.90;;;;;;5066607;28;20033;-80
2022/12/27 12:35:24;;;;;;;7.50;2.28;;;6.70;99.90;;;;;;5054983;28;20043;-81
2022/12/27 12:38:03;;;;;;;9.30;2.40;;;6.50;99.90;;;;;;5070508;28;20043;-80
2022/12/27 12:40:50;;;;;;;13.00;2.35;;;6.50;99.90;;;;;;5051659;28;20149;-81
2022/12/27 12:43:43;;;;;;;8.73;3.05;;;6.40;99.90;;;;;;5066978;28;20100;-80
2022/12/27 12:46:26;;;;;;;11.27;2.75;;;6.30;99.90;;;;;;5061699;28;20055;-81
2022/12/27 12:49:19;;;;;;;6.95;2.50;;;6.20;99.90;;;;;;5050956;28;20450;-81
2022/12/27 12:52:14;;;;;;;13.63;2.85;;;6.10;99.90;;;;;;5047557;28;20047;-81
2022/12/27 12:55:01;;;;;;;11.25;3.58;;;6.10;99.90;;;;;;5069145;28;20506;-81
2022/12/27 12:57:58;;;;;;;8.27;3.08;;;6.00;99.90;;;;;;5068385;28;20478;-81
2022/12/27 13:00:41;;;;;;;13.43;3.97;;;6.00;99.90;;;;;;5069797;28;20128;-80
2022/12/27 13:03:25;;;;;;;14.80;4.30;;;5.90;99.90;;;;;;5059388;28;20096;-81
2022/12/27 13:06:10;;;;;;;8.13;2.30;;;5.90;99.90;;;;;;5045122;28;20555;-80
2022/12/27 13:08:52;;;;;;;10.35;2.58;;;5.90;99.90;;;;;;5035627;28;20049;-81
2022/12/27 13:11:38;;;;;;;9.85;2.58;;;5.90;99.90;;;;;;5049746;28;20032;-81
2022/12/27 13:14:28;;;;;;;9.88;2.38;;;5.90;99.90;;;;;;5031609;28;20078;-81
2022/12/27 13:17:23;;;;;;;9.23;2.40;;;5.90;99.90;;;;;;5052942;28;20387;-81
2022/12/27 13:19:54;;;;;;;9.65;1.95;;;5.90;99.90;;;;;;5036239;28;20041;-80
2022/12/27 13:22:59;;;;;;;11.07;2.85;;;6.00;99.90;;;;;;5044660;28;20033;-82
2022/12/27 13:25:34;;;;;;;9.27;2.20;;;5.90;99.90;;;;;;5017714;28;20060;-81
2022/12/27 13:28:11;;;;;;;6.07;2.50;;;5.90;99.90;;;;;;5045511;28;20099;-81
2022/12/27 13:30:57;;;;;;;7.97;2.50;;;5.90;99.90;;;;;;5045267;28;20056;-81
2022/12/27 13:33:32;;;;;;;11.30;2.13;;;5.90;99.90;;;;;;5053741;28;20523;-80
2022/12/27 13:36:23;;;;;;;8.77;2.38;;;5.90;99.90;;;;;;5037287;28;20044;-80
2022/12/27 13:39:11;;;;;;;11.63;2.42;;;5.80;99.90;;;;;;5054858;28;20103;-82
2022/12/27 13:41:51;;;;;;;8.15;2.28;;;5.50;99.90;;;;;;5051287;28;20533;-81
2022/12/27 13:44:30;;;;;;;10.90;2.20;;;5.70;99.90;;;;;;5055876;28;20063;-81
2022/12/27 13:47:19;;;;;;;13.45;2.70;;;5.70;99.90;;;;;;5053304;28;20032;-80
2022/12/27 13:50:01;;;;;;;9.57;2.72;;;5.60;99.90;;;;;;5067495;28;20048;-81
2022/12/27 13:53:00;;;;;;;11.52;3.70;;;5.60;99.90;;;;;;5056276;28;20047;-81
2022/12/27 13:55:46;;;;;;;11.50;3.20;;;5.60;99.90;;;;;;5039015;28;20060;-82
2022/12/27 13:58:34;;;;;;;6.72;2.83;;;5.60;99.90;;;;;;5037328;28;20396;-81
2022/12/27 14:01:10;;;;;;;13.23;3.90;;;5.60;99.90;;;;;;5029704;28;20041;-80
2022/12/27 14:03:54;;;;;;;12.65;3.00;;;5.60;99.90;;;;;;5053182;28;20411;-80
2022/12/27 14:06:36;;;;;;;11.63;3.28;;;5.60;99.90;;;;;;5040024;28;20036;-81
2022/12/27 14:09:43;;;;;;;8.40;2.85;;;5.60;99.90;;;;;;5033553;28;20045;-80
2022/12/27 14:12:44;;;;;;;6.80;2.97;;;5.60;99.90;;;;;;5043654;28;20115;-80
2022/12/27 14:15:15;;;;;;;12.90;3.53;;;5.70;99.90;;;;;;5056633;28;20490;-81
2022/12/27 14:18:07;;;;;;;9.90;3.63;;;5.70;99.90;;;;;;5050566;28;20041;-82
2022/12/27 14:20:32;;;;;;;11.95;3.78;;;5.70;99.90;;;;;;5047365;28;20483;-80
2022/12/27 14:23:22;;;;;;;11.45;4.10;;;5.70;99.90;;;;;;5049812;28;20041;-81
2022/12/27 14:26:16;;;;;;;14.13;4.80;;;5.80;99.90;;;;;;5052687;28;20052;-80
2022/12/27 14:29:09;;;;;;;9.90;4.15;;;5.80;99.90;;;;;;5029740;28;20029;-82
2022/12/27 14:32:07;;;;;;;16.50;4.82;;;5.80;99.90;;;;;;5037581;28;20044;-80
2022/12/27 14:35:03;;;;;;;13.40;4.60;;;5.80;99.90;;;;;;5043716;28;20038;-81
2022/12/27 14:37:44;;;;;;;15.00;4.80;;;5.90;99.90;;;;;;5062383;28;20040;-82
2022/12/27 14:40:18;;;;;;;12.48;4.65;;;5.90;99.90;;;;;;5054663;28;20410;-81
2022/12/27 14:43:21;;;;;;;9.40;4.93;;;5.90;99.90;;;;;;5047227;28;20087;-80
2022/12/27 14:46:20;;;;;;;12.18;5.00;;;5.90;99.90;;;;;;5054994;28;20040;-81
2022/12/27 14:49:07;;;;;;;11.68;4.80;;;5.80;99.90;;;;;;5055509;28;20056;-81
2022/12/27 14:51:52;;;;;;;15.80;4.80;;;5.80;99.90;;;;;;5056174;28;20036;-81
2022/12/27 14:54:48;;;;;;;11.48;4.90;;;5.70;99.90;;;;;;5040014;28;20036;-81
2022/12/27 14:57:31;;;;;;;11.60;5.05;;;5.70;99.90;;;;;;5060086;28;20080;-79
2022/12/27 15:00:16;;;;;;;11.93;5.07;;;5.70;99.90;;;;;;5029547;28;20037;-81
2022/12/27 15:03:12;;;;;;;11.80;5.60;;;5.70;99.90;;;;;;5046059;28;20437;-80